sensor_id;sensor_type;location;lat;lon;timestamp;pressure;altitude;pressure_sealevel;temperature;humidity
42289;BME280;30230;47.520;19.016;2022-12-18T00:00:47;100379.19;;;-2.53;89.90
42289;BME280;30230;47.520;19.016;2022-12-18T00:02:48;100386.81;;;-2.48;88.50
42289;BME280;30230;47.520;19.016;2022-12-18T00:04:48;100397.97;;;-2.43;89.00
42289;BME280;30230;47.520;19.016;2022-12-18T00:06:49;100406.91;;;-2.60;88.37
42289;BME280;30230;47.520;19.016;2022-12-18T00:08:49;100408.03;;;-2.64;89.47
42289;BME280;30230;47.520;19.016;2022-12-18T00:10:51;100415.06;;;-2.63;89.32
42289;BME280;30230;47.520;19.016;2022-12-18T00:12:51;100397.16;;;-2.88;90.28
42289;BME280;30230;47.520;19.016;2022-12-18T00:14:51;100423.16;;;-2.66;90.37
42289;BME280;30230;47.520;19.016;2022-12-18T00:16:52;100411.53;;;-2.78;90.42
42289;BME280;30230;47.520;19.016;2022-12-18T00:18:54;100424.75;;;-2.78;90.42
42289;BME280;30230;47.520;19.016;2022-12-18T00:20:59;100432.47;;;-2.75;90.50
42289;BME280;30230;47.520;19.016;2022-12-18T00:23:00;100431.31;;;-2.85;90.92
42289;BME280;30230;47.520;19.016;2022-12-18T00:25:00;100453.59;;;-2.59;90.47
42289;BME280;30230;47.520;19.016;2022-12-18T00:27:01;100443.84;;;-2.58;89.76
42289;BME280;30230;47.520;19.016;2022-12-18T00:29:07;100453.59;;;-2.59;89.45
42289;BME280;30230;47.520;19.016;2022-12-18T00:31:11;100449.34;;;-2.62;88.39
42289;BME280;30230;47.520;19.016;2022-12-18T00:33:12;100454.44;;;-2.58;88.91
42289;BME280;30230;47.520;19.016;2022-12-18T00:35:13;100457.00;;;-2.57;89.77
42289;BME280;30230;47.520;19.016;2022-12-18T00:37:13;100452.25;;;-2.66;89.49
42289;BME280;30230;47.520;19.016;2022-12-18T00:39:13;100457.31;;;-2.77;90.05
42289;BME280;30230;47.520;19.016;2022-12-18T00:41:15;100457.44;;;-2.65;88.61
42289;BME280;30230;47.520;19.016;2022-12-18T00:43:39;100470.19;;;-2.71;89.32
42289;BME280;30230;47.520;19.016;2022-12-18T00:45:39;100449.25;;;-2.90;89.70
42289;BME280;30230;47.520;19.016;2022-12-18T00:47:41;100474.25;;;-2.66;91.25
42289;BME280;30230;47.520;19.016;2022-12-18T00:49:41;100457.84;;;-2.86;90.01
42289;BME280;30230;47.520;19.016;2022-12-18T00:51:42;100475.41;;;-2.85;89.96
42289;BME280;30230;47.520;19.016;2022-12-18T00:53:42;100471.34;;;-2.91;90.90
42289;BME280;30230;47.520;19.016;2022-12-18T00:55:43;100476.72;;;-2.93;91.69
42289;BME280;30230;47.520;19.016;2022-12-18T00:57:44;100473.72;;;-2.86;91.56
42289;BME280;30230;47.520;19.016;2022-12-18T00:59:45;100473.28;;;-2.95;91.53
42289;BME280;30230;47.520;19.016;2022-12-18T01:01:46;100488.63;;;-2.85;91.04
42289;BME280;30230;47.520;19.016;2022-12-18T01:03:46;100485.38;;;-2.75;90.48
42289;BME280;30230;47.520;19.016;2022-12-18T01:05:47;100485.16;;;-2.86;90.44
42289;BME280;30230;47.520;19.016;2022-12-18T01:07:47;100476.63;;;-2.91;90.95
42289;BME280;30230;47.520;19.016;2022-12-18T01:09:47;100496.63;;;-2.71;88.91
42289;BME280;30230;47.520;19.016;2022-12-18T01:11:48;100502.19;;;-2.76;89.34
42289;BME280;30230;47.520;19.016;2022-12-18T01:13:48;100497.78;;;-2.61;89.21
42289;BME280;30230;47.520;19.016;2022-12-18T01:15:50;100506.53;;;-2.75;89.54
42289;BME280;30230;47.520;19.016;2022-12-18T01:17:52;100503.88;;;-2.75;89.95
42289;BME280;30230;47.520;19.016;2022-12-18T01:19:53;100502.13;;;-2.60;89.59
42289;BME280;30230;47.520;19.016;2022-12-18T01:21:53;100504.31;;;-2.67;88.95
42289;BME280;30230;47.520;19.016;2022-12-18T01:23:55;100504.19;;;-2.65;88.96
42289;BME280;30230;47.520;19.016;2022-12-18T01:25:55;100500.91;;;-2.69;90.13
42289;BME280;30230;47.520;19.016;2022-12-18T01:27:56;100517.63;;;-2.68;88.99
42289;BME280;30230;47.520;19.016;2022-12-18T01:29:57;100506.84;;;-2.65;89.71
42289;BME280;30230;47.520;19.016;2022-12-18T01:31:57;100515.72;;;-2.66;89.39
42289;BME280;30230;47.520;19.016;2022-12-18T01:34:00;100513.75;;;-2.63;90.34
42289;BME280;30230;47.520;19.016;2022-12-18T01:36:01;100514.03;;;-2.67;89.68
42289;BME280;30230;47.520;19.016;2022-12-18T01:38:01;100513.88;;;-2.80;90.42
42289;BME280;30230;47.520;19.016;2022-12-18T01:40:02;100515.75;;;-2.82;89.41
42289;BME280;30230;47.520;19.016;2022-12-18T01:42:03;100517.56;;;-2.82;90.33
42289;BME280;30230;47.520;19.016;2022-12-18T01:46:42;100510.66;;;-3.01;90.73
42289;BME280;30230;47.520;19.016;2022-12-18T01:48:44;100507.41;;;-2.90;90.37
42289;BME280;30230;47.520;19.016;2022-12-18T01:50:46;100533.41;;;-2.82;89.60
42289;BME280;30230;47.520;19.016;2022-12-18T01:52:52;100528.19;;;-2.68;90.68
42289;BME280;30230;47.520;19.016;2022-12-18T01:54:54;100532.06;;;-2.74;89.93
42289;BME280;30230;47.520;19.016;2022-12-18T01:56:55;100530.78;;;-2.82;90.51
42289;BME280;30230;47.520;19.016;2022-12-18T01:59:03;100527.03;;;-2.94;90.65
42289;BME280;30230;47.520;19.016;2022-12-18T02:01:05;100538.97;;;-3.03;92.03
42289;BME280;30230;47.520;19.016;2022-12-18T02:03:05;100502.69;;;-3.15;91.70
42289;BME280;30230;47.520;19.016;2022-12-18T02:05:07;100529.00;;;-2.98;91.11
42289;BME280;30230;47.520;19.016;2022-12-18T02:07:14;100542.63;;;-3.05;91.49
42289;BME280;30230;47.520;19.016;2022-12-18T02:09:22;100549.41;;;-3.00;91.18
42289;BME280;30230;47.520;19.016;2022-12-18T02:16:17;100558.06;;;-2.98;91.78
42289;BME280;30230;47.520;19.016;2022-12-18T02:18:33;100553.19;;;-3.05;91.54
42289;BME280;30230;47.520;19.016;2022-12-18T02:20:49;100560.13;;;-3.03;92.45
42289;BME280;30230;47.520;19.016;2022-12-18T02:27:13;100556.88;;;-3.24;91.88
42289;BME280;30230;47.520;19.016;2022-12-18T02:29:22;100550.06;;;-3.28;93.05
42289;BME280;30230;47.520;19.016;2022-12-18T02:31:35;100562.69;;;-3.17;92.30
42289;BME280;30230;47.520;19.016;2022-12-18T02:33:37;100582.38;;;-3.23;92.39
42289;BME280;30230;47.520;19.016;2022-12-18T02:35:40;100561.56;;;-3.29;92.98
42289;BME280;30230;47.520;19.016;2022-12-18T02:37:43;100574.63;;;-3.10;91.97
42289;BME280;30230;47.520;19.016;2022-12-18T02:39:47;100578.38;;;-3.14;91.88
42289;BME280;30230;47.520;19.016;2022-12-18T02:41:49;100573.59;;;-3.23;92.50
42289;BME280;30230;47.520;19.016;2022-12-18T02:43:58;100582.47;;;-3.24;92.60
42289;BME280;30230;47.520;19.016;2022-12-18T02:46:00;100568.53;;;-3.28;93.18
42289;BME280;30230;47.520;19.016;2022-12-18T02:48:24;100586.78;;;-3.23;92.63
42289;BME280;30230;47.520;19.016;2022-12-18T02:50:37;100584.66;;;-3.32;93.13
42289;BME280;30230;47.520;19.016;2022-12-18T02:55:01;100597.81;;;-3.48;93.57
42289;BME280;30230;47.520;19.016;2022-12-18T02:57:15;100591.25;;;-3.57;93.46
42289;BME280;30230;47.520;19.016;2022-12-18T02:59:29;100585.34;;;-3.62;94.08
42289;BME280;30230;47.520;19.016;2022-12-18T03:01:40;100598.53;;;-3.62;95.21
42289;BME280;30230;47.520;19.016;2022-12-18T03:03:53;100604.09;;;-3.67;95.67
42289;BME280;30230;47.520;19.016;2022-12-18T03:06:03;100604.84;;;-3.64;95.63
42289;BME280;30230;47.520;19.016;2022-12-18T03:08:15;100603.16;;;-3.65;95.56
42289;BME280;30230;47.520;19.016;2022-12-18T03:10:20;100612.69;;;-3.63;95.22
42289;BME280;30230;47.520;19.016;2022-12-18T03:12:36;100604.34;;;-3.71;95.79
42289;BME280;30230;47.520;19.016;2022-12-18T03:14:39;100626.97;;;-3.67;95.29
42289;BME280;30230;47.520;19.016;2022-12-18T03:16:43;100628.84;;;-3.69;95.30
42289;BME280;30230;47.520;19.016;2022-12-18T03:18:54;100626.38;;;-3.72;94.68
42289;BME280;30230;47.520;19.016;2022-12-18T03:20:58;100627.53;;;-3.78;95.38
42289;BME280;30230;47.520;19.016;2022-12-18T03:23:10;100625.16;;;-3.82;95.27
42289;BME280;30230;47.520;19.016;2022-12-18T03:25:14;100633.22;;;-3.85;96.87
42289;BME280;30230;47.520;19.016;2022-12-18T03:27:18;100631.53;;;-3.86;96.09
42289;BME280;30230;47.520;19.016;2022-12-18T03:29:49;100634.94;;;-3.84;97.02
42289;BME280;30230;47.520;19.016;2022-12-18T03:31:55;100638.38;;;-3.82;97.44
42289;BME280;30230;47.520;19.016;2022-12-18T03:34:01;100642.75;;;-3.83;96.37
42289;BME280;30230;47.520;19.016;2022-12-18T03:36:04;100636.34;;;-3.95;96.54
42289;BME280;30230;47.520;19.016;2022-12-18T03:38:05;100644.88;;;-3.89;96.74
42289;BME280;30230;47.520;19.016;2022-12-18T03:40:06;100651.78;;;-3.87;96.77
42289;BME280;30230;47.520;19.016;2022-12-18T03:46:28;100659.94;;;-3.74;96.16
42289;BME280;30230;47.520;19.016;2022-12-18T03:48:48;100663.50;;;-3.75;96.01
42289;BME280;30230;47.520;19.016;2022-12-18T03:51:05;100667.00;;;-3.75;96.03
42289;BME280;30230;47.520;19.016;2022-12-18T03:55:35;100640.66;;;-3.94;95.54
42289;BME280;30230;47.520;19.016;2022-12-18T03:57:37;100652.41;;;-3.99;96.38
42289;BME280;30230;47.520;19.016;2022-12-18T03:59:38;100655.66;;;-3.94;95.91
42289;BME280;30230;47.520;19.016;2022-12-18T04:01:43;100664.16;;;-3.87;96.23
42289;BME280;30230;47.520;19.016;2022-12-18T04:03:48;100664.69;;;-3.81;95.72
42289;BME280;30230;47.520;19.016;2022-12-18T04:05:51;100660.78;;;-3.74;96.10
42289;BME280;30230;47.520;19.016;2022-12-18T04:07:53;100670.50;;;-3.74;94.74
42289;BME280;30230;47.520;19.016;2022-12-18T04:09:56;100670.81;;;-3.80;95.17
42289;BME280;30230;47.520;19.016;2022-12-18T04:11:58;100680.59;;;-3.82;94.72
42289;BME280;30230;47.520;19.016;2022-12-18T04:13:59;100674.94;;;-3.92;94.73
42289;BME280;30230;47.520;19.016;2022-12-18T04:16:00;100670.81;;;-3.98;95.72
42289;BME280;30230;47.520;19.016;2022-12-18T04:18:01;100680.34;;;-3.95;96.85
42289;BME280;30230;47.520;19.016;2022-12-18T04:20:02;100664.13;;;-4.05;96.29
42289;BME280;30230;47.520;19.016;2022-12-18T04:22:03;100672.97;;;-4.06;96.38
42289;BME280;30230;47.520;19.016;2022-12-18T04:24:03;100670.00;;;-4.17;95.98
42289;BME280;30230;47.520;19.016;2022-12-18T04:26:04;100678.56;;;-4.12;97.38
42289;BME280;30230;47.520;19.016;2022-12-18T04:28:04;100679.88;;;-4.03;96.95
42289;BME280;30230;47.520;19.016;2022-12-18T04:30:05;100664.75;;;-4.17;97.36
42289;BME280;30230;47.520;19.016;2022-12-18T04:32:07;100676.06;;;-4.15;97.25
42289;BME280;30230;47.520;19.016;2022-12-18T04:34:07;100697.25;;;-4.16;97.82
42289;BME280;30230;47.520;19.016;2022-12-18T04:36:08;100674.97;;;-4.28;97.72
42289;BME280;30230;47.520;19.016;2022-12-18T04:38:09;100687.00;;;-4.23;97.41
42289;BME280;30230;47.520;19.016;2022-12-18T04:40:10;100695.84;;;-4.24;96.69
42289;BME280;30230;47.520;19.016;2022-12-18T04:42:11;100702.13;;;-4.26;97.44
42289;BME280;30230;47.520;19.016;2022-12-18T04:44:11;100695.13;;;-4.27;97.81
42289;BME280;30230;47.520;19.016;2022-12-18T04:46:11;100703.69;;;-4.22;97.48
42289;BME280;30230;47.520;19.016;2022-12-18T04:48:12;100706.00;;;-4.33;97.58
42289;BME280;30230;47.520;19.016;2022-12-18T04:50:12;100716.03;;;-4.23;97.37
42289;BME280;30230;47.520;19.016;2022-12-18T04:52:13;100718.88;;;-4.27;97.26
42289;BME280;30230;47.520;19.016;2022-12-18T04:54:13;100721.00;;;-4.35;97.87
42289;BME280;30230;47.520;19.016;2022-12-18T04:56:15;100701.28;;;-4.46;97.62
42289;BME280;30230;47.520;19.016;2022-12-18T04:58:15;100698.94;;;-4.52;97.79
42289;BME280;30230;47.520;19.016;2022-12-18T05:00:16;100716.97;;;-4.42;97.89
42289;BME280;30230;47.520;19.016;2022-12-18T05:02:16;100721.44;;;-4.45;97.17
42289;BME280;30230;47.520;19.016;2022-12-18T05:04:17;100717.97;;;-4.45;96.90
42289;BME280;30230;47.520;19.016;2022-12-18T05:06:17;100723.69;;;-4.54;97.33
42289;BME280;30230;47.520;19.016;2022-12-18T05:08:18;100716.28;;;-4.65;98.45
42289;BME280;30230;47.520;19.016;2022-12-18T05:10:19;100726.25;;;-4.53;97.77
42289;BME280;30230;47.520;19.016;2022-12-18T05:12:19;100732.25;;;-4.49;98.49
42289;BME280;30230;47.520;19.016;2022-12-18T05:14:19;100714.94;;;-4.55;98.90
42289;BME280;30230;47.520;19.016;2022-12-18T05:16:20;100735.34;;;-4.41;98.55
42289;BME280;30230;47.520;19.016;2022-12-18T05:18:21;100720.47;;;-4.42;98.28
42289;BME280;30230;47.520;19.016;2022-12-18T05:20:21;100726.91;;;-4.30;98.39
42289;BME280;30230;47.520;19.016;2022-12-18T05:22:22;100730.41;;;-4.30;98.15
42289;BME280;30230;47.520;19.016;2022-12-18T05:24:22;100732.38;;;-4.33;97.24
42289;BME280;30230;47.520;19.016;2022-12-18T05:26:23;100734.63;;;-4.45;96.98
42289;BME280;30230;47.520;19.016;2022-12-18T05:28:25;100740.50;;;-4.38;97.68
42289;BME280;30230;47.520;19.016;2022-12-18T05:30:25;100744.75;;;-4.35;98.44
42289;BME280;30230;47.520;19.016;2022-12-18T05:32:26;100731.53;;;-4.53;98.42
42289;BME280;30230;47.520;19.016;2022-12-18T05:34:27;100744.28;;;-4.43;97.48
42289;BME280;30230;47.520;19.016;2022-12-18T05:36:27;100747.75;;;-4.43;97.43
42289;BME280;30230;47.520;19.016;2022-12-18T05:38:29;100753.91;;;-4.42;98.69
42289;BME280;30230;47.520;19.016;2022-12-18T05:40:29;100748.91;;;-4.49;97.53
42289;BME280;30230;47.520;19.016;2022-12-18T05:42:30;100759.09;;;-4.41;97.55
42289;BME280;30230;47.520;19.016;2022-12-18T05:44:31;100746.41;;;-4.52;96.82
42289;BME280;30230;47.520;19.016;2022-12-18T05:46:31;100757.88;;;-4.53;97.29
42289;BME280;30230;47.520;19.016;2022-12-18T05:48:32;100762.50;;;-4.58;96.90
42289;BME280;30230;47.520;19.016;2022-12-18T05:50:36;100774.94;;;-4.60;97.74
42289;BME280;30230;47.520;19.016;2022-12-18T05:52:37;100764.88;;;-4.52;98.40
42289;BME280;30230;47.520;19.016;2022-12-18T05:54:37;100771.41;;;-4.60;97.98
42289;BME280;30230;47.520;19.016;2022-12-18T05:56:39;100784.25;;;-4.53;97.84
42289;BME280;30230;47.520;19.016;2022-12-18T05:58:39;100756.47;;;-4.60;98.74
42289;BME280;30230;47.520;19.016;2022-12-18T06:00:41;100778.13;;;-4.53;98.67
42289;BME280;30230;47.520;19.016;2022-12-18T06:02:42;100781.75;;;-4.56;99.65
42289;BME280;30230;47.520;19.016;2022-12-18T06:04:46;100787.81;;;-4.54;99.82
42289;BME280;30230;47.520;19.016;2022-12-18T06:06:47;100787.63;;;-4.49;98.41
42289;BME280;30230;47.520;19.016;2022-12-18T06:08:47;100796.59;;;-4.53;99.00
42289;BME280;30230;47.520;19.016;2022-12-18T06:10:52;100792.81;;;-4.48;98.58
42289;BME280;30230;47.520;19.016;2022-12-18T06:12:52;100786.97;;;-4.54;99.65
42289;BME280;30230;47.520;19.016;2022-12-18T06:14:53;100781.91;;;-4.59;98.61
42289;BME280;30230;47.520;19.016;2022-12-18T06:16:53;100794.94;;;-4.56;98.21
42289;BME280;30230;47.520;19.016;2022-12-18T06:18:57;100792.28;;;-4.56;97.87
42289;BME280;30230;47.520;19.016;2022-12-18T06:20:59;100799.75;;;-4.65;98.40
42289;BME280;30230;47.520;19.016;2022-12-18T06:23:00;100802.63;;;-4.70;98.37
42289;BME280;30230;47.520;19.016;2022-12-18T06:25:00;100788.19;;;-4.82;98.66
42289;BME280;30230;47.520;19.016;2022-12-18T06:27:01;100797.91;;;-4.82;99.53
42289;BME280;30230;47.520;19.016;2022-12-18T06:29:02;100811.19;;;-4.65;99.29
42289;BME280;30230;47.520;19.016;2022-12-18T06:31:04;100810.31;;;-4.65;99.60
42289;BME280;30230;47.520;19.016;2022-12-18T06:33:04;100789.91;;;-4.81;100.00
42289;BME280;30230;47.520;19.016;2022-12-18T06:35:05;100814.28;;;-4.76;99.56
42289;BME280;30230;47.520;19.016;2022-12-18T06:37:06;100801.81;;;-4.91;100.00
42289;BME280;30230;47.520;19.016;2022-12-18T06:39:06;100826.38;;;-4.90;100.00
42289;BME280;30230;47.520;19.016;2022-12-18T06:41:12;100834.28;;;-4.90;100.00
42289;BME280;30230;47.520;19.016;2022-12-18T06:43:13;100832.22;;;-4.84;100.00
42289;BME280;30230;47.520;19.016;2022-12-18T06:45:14;100826.09;;;-4.84;100.00
42289;BME280;30230;47.520;19.016;2022-12-18T06:47:14;100834.28;;;-4.70;100.00
42289;BME280;30230;47.520;19.016;2022-12-18T06:49:15;100832.84;;;-4.58;100.00
42289;BME280;30230;47.520;19.016;2022-12-18T06:51:21;100822.38;;;-4.60;99.81
42289;BME280;30230;47.520;19.016;2022-12-18T06:53:22;100828.31;;;-4.55;99.46
42289;BME280;30230;47.520;19.016;2022-12-18T06:55:22;100816.19;;;-4.59;99.56
42289;BME280;30230;47.520;19.016;2022-12-18T06:57:22;100837.47;;;-4.45;100.00
42289;BME280;30230;47.520;19.016;2022-12-18T06:59:23;100848.97;;;-4.46;100.00
42289;BME280;30230;47.520;19.016;2022-12-18T07:01:23;100854.69;;;-4.36;99.69
42289;BME280;30230;47.520;19.016;2022-12-18T07:03:24;100851.84;;;-4.31;99.99
42289;BME280;30230;47.520;19.016;2022-12-18T07:05:24;100854.13;;;-4.24;100.00
42289;BME280;30230;47.520;19.016;2022-12-18T07:07:24;100853.25;;;-4.24;99.56
42289;BME280;30230;47.520;19.016;2022-12-18T07:09:25;100861.16;;;-4.24;99.32
42289;BME280;30230;47.520;19.016;2022-12-18T07:11:25;100862.81;;;-4.22;99.38
42289;BME280;30230;47.520;19.016;2022-12-18T07:13:26;100857.53;;;-4.22;100.00
42289;BME280;30230;47.520;19.016;2022-12-18T07:15:26;100877.59;;;-4.17;99.91
42289;BME280;30230;47.520;19.016;2022-12-18T07:17:27;100884.22;;;-4.09;99.50
42289;BME280;30230;47.520;19.016;2022-12-18T07:19:27;100879.16;;;-4.13;100.00
42289;BME280;30230;47.520;19.016;2022-12-18T07:21:29;100871.25;;;-4.13;100.00
42289;BME280;30230;47.520;19.016;2022-12-18T07:23:29;100879.72;;;-4.07;100.00
42289;BME280;30230;47.520;19.016;2022-12-18T07:25:29;100887.50;;;-4.04;100.00
42289;BME280;30230;47.520;19.016;2022-12-18T07:27:30;100878.03;;;-4.08;100.00
42289;BME280;30230;47.520;19.016;2022-12-18T07:29:30;100900.44;;;-3.98;100.00
42289;BME280;30230;47.520;19.016;2022-12-18T07:31:31;100888.78;;;-4.12;100.00
42289;BME280;30230;47.520;19.016;2022-12-18T07:33:32;100912.97;;;-4.03;100.00
42289;BME280;30230;47.520;19.016;2022-12-18T07:35:33;100905.63;;;-3.96;100.00
42289;BME280;30230;47.520;19.016;2022-12-18T07:37:36;100908.25;;;-3.96;100.00
42289;BME280;30230;47.520;19.016;2022-12-18T07:39:37;100901.41;;;-4.00;100.00
42289;BME280;30230;47.520;19.016;2022-12-18T07:41:37;100918.63;;;-3.91;100.00
42289;BME280;30230;47.520;19.016;2022-12-18T07:43:39;100921.72;;;-3.83;100.00
42289;BME280;30230;47.520;19.016;2022-12-18T07:45:39;100926.13;;;-3.82;100.00
42289;BME280;30230;47.520;19.016;2022-12-18T07:47:40;100919.94;;;-3.83;100.00
42289;BME280;30230;47.520;19.016;2022-12-18T07:49:41;100924.25;;;-3.80;100.00
42289;BME280;30230;47.520;19.016;2022-12-18T07:51:41;100926.75;;;-3.77;100.00
42289;BME280;30230;47.520;19.016;2022-12-18T07:53:42;100932.88;;;-3.77;100.00
42289;BME280;30230;47.520;19.016;2022-12-18T07:55:42;100936.09;;;-3.70;100.00
42289;BME280;30230;47.520;19.016;2022-12-18T07:57:43;100933.53;;;-3.72;100.00
42289;BME280;30230;47.520;19.016;2022-12-18T07:59:43;100933.66;;;-3.75;100.00
42289;BME280;30230;47.520;19.016;2022-12-18T08:01:44;100943.78;;;-3.65;100.00
42289;BME280;30230;47.520;19.016;2022-12-18T08:03:44;100937.94;;;-3.72;100.00
42289;BME280;30230;47.520;19.016;2022-12-18T08:05:45;100947.13;;;-3.62;100.00
42289;BME280;30230;47.520;19.016;2022-12-18T08:07:45;100952.16;;;-3.56;100.00
42289;BME280;30230;47.520;19.016;2022-12-18T08:09:45;100940.00;;;-3.60;100.00
42289;BME280;30230;47.520;19.016;2022-12-18T08:11:46;100962.25;;;-3.47;100.00
42289;BME280;30230;47.520;19.016;2022-12-18T08:13:46;100962.13;;;-3.44;100.00
42289;BME280;30230;47.520;19.016;2022-12-18T08:15:58;100953.97;;;-3.39;100.00
42289;BME280;30230;47.520;19.016;2022-12-18T08:17:59;100949.94;;;-3.46;100.00
42289;BME280;30230;47.520;19.016;2022-12-18T08:19:59;100956.53;;;-3.37;100.00
42289;BME280;30230;47.520;19.016;2022-12-18T08:21:59;100958.81;;;-3.30;100.00
42289;BME280;30230;47.520;19.016;2022-12-18T08:24:01;100957.66;;;-3.24;100.00
42289;BME280;30230;47.520;19.016;2022-12-18T08:26:01;100956.09;;;-3.28;100.00
42289;BME280;30230;47.520;19.016;2022-12-18T08:28:02;100957.50;;;-3.21;100.00
42289;BME280;30230;47.520;19.016;2022-12-18T08:30:03;100946.69;;;-1.32;100.00
42289;BME280;30230;47.520;19.016;2022-12-18T08:32:04;100966.22;;;-0.43;100.00
42289;BME280;30230;47.520;19.016;2022-12-18T08:34:04;100956.81;;;-0.93;100.00
42289;BME280;30230;47.520;19.016;2022-12-18T08:36:05;100969.94;;;-1.37;97.60
42289;BME280;30230;47.520;19.016;2022-12-18T08:38:06;100970.03;;;-1.54;97.69
42289;BME280;30230;47.520;19.016;2022-12-18T08:40:07;100974.44;;;-1.71;99.89
42289;BME280;30230;47.520;19.016;2022-12-18T08:42:07;100977.56;;;-1.96;95.17
42289;BME280;30230;47.520;19.016;2022-12-18T08:44:27;100969.16;;;-2.04;96.34
42289;BME280;30230;47.520;19.016;2022-12-18T08:46:41;100980.69;;;-2.05;95.11
42289;BME280;30230;47.520;19.016;2022-12-18T08:48:42;100980.09;;;-2.10;95.80
42289;BME280;30230;47.520;19.016;2022-12-18T08:50:42;100974.00;;;-2.12;96.07
42289;BME280;30230;47.520;19.016;2022-12-18T08:52:43;100981.31;;;-2.17;95.67
42289;BME280;30230;47.520;19.016;2022-12-18T08:54:43;100978.84;;;-2.20;95.80
42289;BME280;30230;47.520;19.016;2022-12-18T08:56:43;100978.84;;;-2.20;95.32
42289;BME280;30230;47.520;19.016;2022-12-18T08:58:44;100990.16;;;-2.17;96.30
42289;BME280;30230;47.520;19.016;2022-12-18T09:00:44;100995.03;;;-2.09;95.13
42289;BME280;30230;47.520;19.016;2022-12-18T09:02:45;100984.78;;;-2.15;94.06
42289;BME280;30230;47.520;19.016;2022-12-18T09:04:48;100992.25;;;-2.06;92.81
42289;BME280;30230;47.520;19.016;2022-12-18T09:06:49;101005.66;;;-1.93;91.76
42289;BME280;30230;47.520;19.016;2022-12-18T09:08:49;101011.66;;;-1.41;88.39
42289;BME280;30230;47.520;19.016;2022-12-18T09:10:50;100995.72;;;-1.72;88.68
42289;BME280;30230;47.520;19.016;2022-12-18T09:12:51;101021.50;;;-1.76;89.39
42289;BME280;30230;47.520;19.016;2022-12-18T09:14:51;101025.81;;;-1.73;89.64
42289;BME280;30230;47.520;19.016;2022-12-18T09:16:52;101015.19;;;-1.73;90.60
42289;BME280;30230;47.520;19.016;2022-12-18T09:18:52;101014.75;;;-1.81;91.58
42289;BME280;30230;47.520;19.016;2022-12-18T09:20:59;101012.28;;;-1.85;91.84
42289;BME280;30230;47.520;19.016;2022-12-18T09:22:59;101017.16;;;-1.77;92.13
42289;BME280;30230;47.520;19.016;2022-12-18T09:25:00;101009.06;;;-1.74;91.24
42289;BME280;30230;47.520;19.016;2022-12-18T09:27:00;100997.16;;;-1.83;90.91
42289;BME280;30230;47.520;19.016;2022-12-18T09:29:02;100997.75;;;-1.77;91.39
42289;BME280;30230;47.520;19.016;2022-12-18T09:31:07;101011.03;;;-1.62;91.31
42289;BME280;30230;47.520;19.016;2022-12-18T09:33:08;101011.28;;;-1.66;91.60
42289;BME280;30230;47.520;19.016;2022-12-18T09:35:08;100995.81;;;-1.74;91.41
42289;BME280;30230;47.520;19.016;2022-12-18T09:37:09;101009.41;;;-1.64;92.04
42289;BME280;30230;47.520;19.016;2022-12-18T09:39:10;100998.47;;;-1.58;92.39
42289;BME280;30230;47.520;19.016;2022-12-18T09:43:42;101000.38;;;-1.44;91.88
42289;BME280;30230;47.520;19.016;2022-12-18T09:45:47;101007.53;;;-1.46;92.21
42289;BME280;30230;47.520;19.016;2022-12-18T09:47:52;100996.09;;;-1.47;92.05
42289;BME280;30230;47.520;19.016;2022-12-18T09:49:57;100996.28;;;-1.50;90.84
42289;BME280;30230;47.520;19.016;2022-12-18T09:52:07;101004.13;;;-1.33;90.42
42289;BME280;30230;47.520;19.016;2022-12-18T09:54:20;101006.44;;;-1.26;89.23
42289;BME280;30230;47.520;19.016;2022-12-18T09:56:21;101004.31;;;-1.20;87.87
42289;BME280;30230;47.520;19.016;2022-12-18T10:00:32;101002.22;;;-0.83;86.07
42289;BME280;30230;47.520;19.016;2022-12-18T10:02:32;101004.09;;;-0.85;86.70
42289;BME280;30230;47.520;19.016;2022-12-18T10:04:33;100999.56;;;-0.83;87.46
42289;BME280;30230;47.520;19.016;2022-12-18T10:06:49;101000.06;;;-0.76;87.46
42289;BME280;30230;47.520;19.016;2022-12-18T10:09:05;100997.75;;;-0.67;87.32
42289;BME280;30230;47.520;19.016;2022-12-18T10:11:27;101000.31;;;-0.65;86.60
42289;BME280;30230;47.520;19.016;2022-12-18T10:13:31;101005.25;;;-0.59;84.75
42289;BME280;30230;47.520;19.016;2022-12-18T10:15:48;101004.63;;;-0.48;83.86
42289;BME280;30230;47.520;19.016;2022-12-18T10:18:10;101002.66;;;-0.45;83.55
42289;BME280;30230;47.520;19.016;2022-12-18T10:20:29;100997.22;;;-0.43;83.65
42289;BME280;30230;47.520;19.016;2022-12-18T10:22:47;101000.69;;;-0.27;83.12
42289;BME280;30230;47.520;19.016;2022-12-18T10:27:12;100992.00;;;-0.01;81.33
42289;BME280;30230;47.520;19.016;2022-12-18T10:29:15;100996.44;;;-0.01;79.35
42289;BME280;30230;47.520;19.016;2022-12-18T10:31:22;100981.84;;;0.06;79.89
42289;BME280;30230;47.520;19.016;2022-12-18T10:33:27;100987.72;;;0.25;77.46
42289;BME280;30230;47.520;19.016;2022-12-18T10:35:27;100986.78;;;0.27;78.27
42289;BME280;30230;47.520;19.016;2022-12-18T10:37:29;100992.84;;;0.29;78.44
42289;BME280;30230;47.520;19.016;2022-12-18T10:39:30;100994.78;;;0.27;75.86
42289;BME280;30230;47.520;19.016;2022-12-18T10:41:30;100981.19;;;0.31;75.06
42289;BME280;30230;47.520;19.016;2022-12-18T10:45:34;100994.94;;;0.38;75.87
42289;BME280;30230;47.520;19.016;2022-12-18T10:47:35;100983.06;;;0.43;77.09
42289;BME280;30230;47.520;19.016;2022-12-18T10:49:35;100994.16;;;0.50;77.29
42289;BME280;30230;47.520;19.016;2022-12-18T10:51:37;100984.31;;;0.52;77.63
42289;BME280;30230;47.520;19.016;2022-12-18T10:53:40;100993.59;;;0.59;77.84
42289;BME280;30230;47.520;19.016;2022-12-18T10:55:44;100989.13;;;0.60;74.82
42289;BME280;30230;47.520;19.016;2022-12-18T10:57:46;100984.19;;;0.68;75.13
42289;BME280;30230;47.520;19.016;2022-12-18T10:59:54;100988.41;;;0.85;73.77
42289;BME280;30230;47.520;19.016;2022-12-18T11:01:56;100978.50;;;0.87;74.70